Estación Meteorológica Peña el Pijo (Robertgarden) [ 01/30/23 14:32:39 CET ]

Fecha Hora Presion(HPa) Temp (°C) Humedad % Rocio (°C) Viento ( m/s) Direccion Lluvia 1Hora(mm) Lluvia 24H(mm) LLuvia Total(mm)
2010-Jul-19 01:01:17 1017.500 19.6 68 13.5         130.53
2010-Jul-19 02:01:17 1017.500 18.2 71 12.9         130.53
2010-Jul-19 03:03:17 1017.000 17.4 72 12.3         130.53
2010-Jul-19 04:01:14 1016.500 17.5 70 12.0         130.53
2010-Jul-19 05:01:15 1016.300 17.4 67 11.2         130.53
2010-Jul-19 06:01:12 1016.300 17.7 62 10.3         130.53
2010-Jul-19 07:01:16 1016.100 17.4 62 10.0         130.53
2010-Jul-19 08:01:17 1016.200 18.6 61 10.9         130.53
2010-Jul-19 09:01:12 1015.900 23.5 54 13.6         130.53
2010-Jul-19 10:01:16 1016.000 29.4 42 15.2         130.53
2010-Jul-19 11:01:14 1015.700 33.1 28 12.1         130.53
2010-Jul-19 12:01:14 1015.600 35.3 19 8.0         130.53
2010-Jul-19 13:01:12 1015.200 37.8 17 8.0         130.53
2010-Jul-19 14:01:12 1014.800 37.6 17 7.9         130.53
2010-Jul-19 15:01:17 1014.300 37.9 15 6.1         130.53
2010-Jul-19 16:01:13 1013.800 38.8 20 11.8         130.53
2010-Jul-19 17:01:11 1013.500 36.2 27 14.0         130.53
2010-Jul-19 18:01:16 1013.400 35.1 30 15.0 1.6 N     130.53
2010-Jul-19 19:01:11 1013.200 32.6 35 15.0         130.53
2010-Jul-19 20:01:14 1013.200 31.3 40 16.1         130.53
2010-Jul-19 21:01:11 1013.700 28.6 46 15.8         130.53
2010-Jul-19 22:01:11 1014.000 26.5 50 15.2         130.53
2010-Jul-19 23:01:17 1014.300 23.4 57 14.4         130.53

Temperatura Máxima:38°    Temperatura Mínima:17°
Presión Máxima:1017.500 Hpa    Presión Mínima:1013.200 Hpa


Volver